Time;durP1;ratioP1;P1;durP2;ratioP2;P2;SDS_P1;SDS_P2;PMS_P1;PMS_P2;Temp;Humidity;BMP_temperature;BMP_pressure;BME280_temperature;BME280_humidity;BME280_pressure;Samples;Min_cycle;Max_cycle;Signal;HPM_P1;HPM_P2
2022/11/19 00:00:41;;;;;;;;;;;23.20;99.90;;;;;;4994623;28;20440;-46
2022/11/19 00:03:07;;;;;;;;;;;23.20;99.90;;;;;;4995234;28;20282;-45
2022/11/19 00:05:39;;;;;;;;;;;23.20;99.90;;;;;;4994892;28;19906;-45
2022/11/19 00:08:05;;;;;;;;;;;23.20;99.90;;;;;;4994692;28;19905;-45
2022/11/19 00:10:32;;;;;;;;;;;23.20;99.90;;;;;;4994761;28;19913;-45
2022/11/19 00:12:58;;;;;;;;;;;23.10;99.90;;;;;;4994559;28;19906;-47
2022/11/19 00:15:23;;;;;;;;;;;23.10;99.90;;;;;;4994670;28;20445;-45
2022/11/19 00:17:49;;;;;;;;;;;23.10;99.90;;;;;;4994554;28;19910;-45
2022/11/19 00:20:16;;;;;;;;;;;23.10;99.90;;;;;;4994411;28;19925;-45
2022/11/19 00:22:42;;;;;;;;;;;23.10;99.90;;;;;;4994516;28;20290;-45
2022/11/19 00:25:08;;;;;;;;;;;23.10;99.90;;;;;;4994145;28;19905;-46
2022/11/19 00:27:34;;;;;;;;;;;23.10;99.90;;;;;;4994119;28;20014;-44
2022/11/19 00:30:00;;;;;;;;;;;23.10;99.90;;;;;;4994533;28;20239;-44
2022/11/19 00:32:25;;;;;;;;;;;23.10;99.90;;;;;;4994497;28;19928;-44
2022/11/19 00:34:51;;;;;;;;;;;23.10;99.90;;;;;;4994582;28;19969;-44
2022/11/19 00:37:16;;;;;;;;;;;23.10;99.90;;;;;;5009540;28;19906;-44
2022/11/19 00:39:42;;;;;;;;;;;23.10;99.90;;;;;;4994104;28;19914;-48
2022/11/19 00:42:07;;;;;;;;;;;23.10;99.90;;;;;;4994461;28;19906;-45
2022/11/19 00:44:33;;;;;;;;;;;23.10;99.90;;;;;;4994276;28;20000;-45
2022/11/19 00:46:59;;;;;;;;;;;23.00;99.90;;;;;;4994484;28;19906;-44
2022/11/19 00:49:24;;;;;;;;;;;23.00;99.90;;;;;;4993062;28;20337;-45
2022/11/19 00:51:50;;;;;;;;;;;23.00;99.90;;;;;;4994353;28;19906;-45
2022/11/19 00:54:15;;;;;;;;;;;23.00;99.90;;;;;;4994390;28;20350;-43
2022/11/19 00:56:41;;;;;;;;;;;23.00;99.90;;;;;;4994296;28;19905;-44
2022/11/19 00:59:07;;;;;;;;;;;23.00;99.90;;;;;;4994390;28;19914;-44
2022/11/19 01:01:32;;;;;;;;;;;23.00;99.90;;;;;;4994220;28;20374;-43
2022/11/19 01:03:58;;;;;;;;;;;23.00;99.90;;;;;;4994174;28;19968;-46
2022/11/19 01:06:24;;;;;;;;;;;23.00;99.90;;;;;;4994139;28;20275;-44
2022/11/19 01:08:51;;;;;;;;;;;23.00;99.90;;;;;;4993919;28;19910;-43
2022/11/19 01:11:17;;;;;;;;;;;23.00;99.90;;;;;;4993195;28;19910;-44
2022/11/19 01:13:43;;;;;;;;;;;23.00;99.90;;;;;;4993966;28;19929;-44
2022/11/19 01:16:10;;;;;;;;;;;23.00;99.90;;;;;;4993938;28;19906;-44
2022/11/19 01:18:36;;;;;;;;;;;23.00;99.90;;;;;;4994134;28;20390;-44
2022/11/19 01:21:02;;;;;;;;;;;23.00;99.90;;;;;;4994037;28;19905;-44
2022/11/19 01:23:28;;;;;;;;;;;23.00;99.90;;;;;;4993951;28;19906;-44
2022/11/19 01:25:54;;;;;;;;;;;23.00;99.90;;;;;;4993826;28;19909;-44
2022/11/19 01:28:19;;;;;;;;;;;23.00;99.90;;;;;;4992695;28;19906;-44
2022/11/19 01:30:45;;;;;;;;;;;22.90;99.90;;;;;;4993919;28;19942;-44
2022/11/19 01:33:11;;;;;;;;;;;22.90;99.90;;;;;;4994089;28;19969;-43
2022/11/19 01:35:36;;;;;;;;;;;22.90;99.90;;;;;;4993873;28;20380;-44
2022/11/19 01:38:02;;;;;;;;;;;22.90;99.90;;;;;;4996068;28;19975;-43
2022/11/19 01:40:28;;;;;;;;;;;22.90;99.90;;;;;;4997540;28;20358;-44
2022/11/19 01:42:54;;;;;;;;;;;22.90;99.90;;;;;;4997386;28;20008;-43
2022/11/19 01:45:31;;;;;;;;;;;22.90;99.90;;;;;;4997287;28;19954;-44
2022/11/19 01:48:05;;;;;;;;;;;22.90;99.90;;;;;;4997247;28;19912;-44
2022/11/19 01:50:33;;;;;;;;;;;22.90;99.90;;;;;;4997439;28;19913;-45
2022/11/19 01:52:58;;;;;;;;;;;22.90;99.90;;;;;;4997257;28;19905;-45
2022/11/19 01:55:24;;;;;;;;;;;22.90;99.90;;;;;;4997092;28;19916;-45
2022/11/19 01:57:55;;;;;;;;;;;22.90;99.90;;;;;;4997189;28;20009;-44
2022/11/19 02:00:21;;;;;;;;;;;22.90;99.90;;;;;;4997268;28;19917;-44
2022/11/19 02:02:47;;;;;;;;;;;22.90;99.90;;;;;;4997247;28;19913;-45
2022/11/19 02:05:12;;;;;;;;;;;22.90;99.90;;;;;;4996989;28;19906;-44
2022/11/19 02:07:39;;;;;;;;;;;22.90;99.90;;;;;;4997108;28;19960;-44
2022/11/19 02:10:05;;;;;;;;;;;22.80;99.90;;;;;;4996769;28;19906;-44
2022/11/19 02:12:31;;;;;;;;;;;22.80;99.90;;;;;;4996756;28;19984;-44
2022/11/19 02:15:02;;;;;;;;;;;22.80;99.90;;;;;;4996856;28;19960;-45
2022/11/19 02:17:36;;;;;;;;;;;22.80;99.90;;;;;;4996898;28;19960;-45
2022/11/19 02:20:21;;;;;;;;;;;22.80;99.90;;;;;;4996566;28;19936;-45
2022/11/19 02:22:55;;;;;;;;;;;22.80;99.90;;;;;;4996878;28;19906;-44
2022/11/19 02:25:21;;;;;;;;;;;22.80;99.90;;;;;;4996850;28;20405;-45
2022/11/19 02:28:05;;;;;;;;;;;22.80;99.90;;;;;;4996992;28;20000;-45
2022/11/19 02:30:38;;;;;;;;;;;22.80;99.90;;;;;;4996594;28;19976;-45
2022/11/19 02:33:08;;;;;;;;;;;22.80;99.90;;;;;;4996557;28;19952;-45
2022/11/19 02:35:44;;;;;;;;;;;22.80;99.90;;;;;;4996645;28;20281;-45
2022/11/19 02:38:28;;;;;;;;;;;22.80;99.90;;;;;;4996535;28;19913;-45
2022/11/19 02:40:55;;;;;;;;;;;22.80;99.90;;;;;;4996515;28;19932;-45
2022/11/19 02:43:25;;;;;;;;;;;22.80;99.90;;;;;;4996237;28;20282;-44
2022/11/19 02:45:54;;;;;;;;;;;22.70;99.90;;;;;;4996681;28;20239;-44
2022/11/19 02:48:25;;;;;;;;;;;22.80;99.90;;;;;;4995806;28;20294;-44
2022/11/19 02:50:52;;;;;;;;;;;22.70;99.90;;;;;;4996010;28;19905;-44
2022/11/19 02:53:18;;;;;;;;;;;22.70;99.90;;;;;;4996084;28;20004;-45
2022/11/19 02:56:09;;;;;;;;;;;22.70;99.90;;;;;;4995985;28;19949;-44
2022/11/19 03:06:46;;;;;;;;;;;22.70;99.90;;;;;;4995866;28;20004;-44
2022/11/19 03:09:12;;;;;;;;;;;22.70;99.90;;;;;;4995808;28;19945;-44
2022/11/19 03:11:37;;;;;;;;;;;22.70;99.90;;;;;;4994595;28;19913;-45
2022/11/19 03:16:51;;;;;;;;;;;22.70;99.90;;;;;;4995577;28;20419;-44
2022/11/19 03:19:35;;;;;;;;;;;22.70;99.90;;;;;;4995558;28;19917;-44
2022/11/19 03:22:19;;;;;;;;;;;22.70;99.90;;;;;;4995591;28;19906;-44
2022/11/19 03:24:47;;;;;;;;;;;22.70;99.90;;;;;;4995491;28;19957;-44
2022/11/19 03:27:20;;;;;;;;;;;22.70;99.90;;;;;;4995593;28;19921;-45
2022/11/19 03:29:48;;;;;;;;;;;22.70;99.90;;;;;;4995398;28;19909;-45
2022/11/19 03:32:17;;;;;;;;;;;22.60;99.90;;;;;;4995428;28;20274;-44
2022/11/19 03:34:44;;;;;;;;;;;22.70;99.90;;;;;;4995334;28;19906;-44
2022/11/19 03:37:10;;;;;;;;;;;22.60;99.90;;;;;;4995578;28;20368;-44
2022/11/19 03:39:36;;;;;;;;;;;22.60;99.90;;;;;;4995148;28;20370;-44
2022/11/19 03:42:04;;;;;;;;;;;22.60;99.90;;;;;;4995591;28;20286;-45
2022/11/19 03:44:30;;;;;;;;;;;22.60;99.90;;;;;;4995193;28;19945;-44
2022/11/19 03:47:00;;;;;;;;;;;22.60;99.90;;;;;;4995100;28;19956;-44
2022/11/19 03:49:30;;;;;;;;;;;22.60;99.90;;;;;;4995060;28;19905;-44
2022/11/19 03:52:04;;;;;;;;;;;22.60;99.90;;;;;;4995123;28;19906;-44
2022/11/19 03:54:30;;;;;;;;;;;22.60;99.90;;;;;;4995049;28;19906;-44
2022/11/19 03:56:57;;;;;;;;;;;22.60;99.90;;;;;;4995091;28;19913;-44
2022/11/19 03:59:22;;;;;;;;;;;22.60;99.90;;;;;;4995269;28;19921;-44
2022/11/19 04:01:49;;;;;;;;;;;22.60;99.90;;;;;;4993885;28;19914;-44
2022/11/19 04:06:59;;;;;;;;;;;22.60;99.90;;;;;;4994885;28;19964;-44
2022/11/19 04:09:24;;;;;;;;;;;22.50;99.90;;;;;;4994722;28;19910;-44
2022/11/19 04:11:50;;;;;;;;;;;22.50;99.90;;;;;;4994905;28;19955;-44
2022/11/19 04:14:15;;;;;;;;;;;22.60;99.90;;;;;;4994802;28;19906;-45
2022/11/19 04:16:41;;;;;;;;;;;22.50;99.90;;;;;;4994675;28;19917;-45
2022/11/19 04:19:06;;;;;;;;;;;22.50;99.90;;;;;;4994575;28;19910;-44
2022/11/19 04:21:32;;;;;;;;;;;22.50;99.90;;;;;;4994474;28;19906;-44
2022/11/19 04:23:58;;;;;;;;;;;22.50;99.90;;;;;;4991681;28;19975;-44
2022/11/19 04:26:23;;;;;;;;;;;22.50;99.90;;;;;;4991784;28;19909;-44
2022/11/19 04:28:49;;;;;;;;;;;22.50;99.90;;;;;;4976917;28;20075;-44
2022/11/19 04:31:14;;;;;;;;;;;22.50;99.90;;;;;;4994776;28;19910;-44
2022/11/19 04:33:40;;;;;;;;;;;22.50;99.90;;;;;;4993136;28;19909;-44
2022/11/19 04:36:06;;;;;;;;;;;22.50;99.90;;;;;;4994370;28;20354;-45
2022/11/19 04:38:33;;;;;;;;;;;22.50;99.90;;;;;;4994251;28;19914;-45
2022/11/19 04:40:59;;;;;;;;;;;22.50;99.90;;;;;;4992653;28;20004;-45
2022/11/19 04:43:24;;;;;;;;;;;22.50;99.90;;;;;;4985230;28;19952;-45
2022/11/19 04:45:50;;;;;;;;;;;22.50;99.90;;;;;;4991160;28;20251;-44
2022/11/19 04:48:16;;;;;;;;;;;22.50;99.90;;;;;;4992048;28;20364;-44
2022/11/19 04:50:41;;;;;;;;;;;22.50;99.90;;;;;;4992086;28;19906;-45
2022/11/19 04:53:07;;;;;;;;;;;22.40;99.90;;;;;;4992171;28;20380;-44
2022/11/19 04:55:32;;;;;;;;;;;22.50;99.90;;;;;;5007361;28;19945;-45
2022/11/19 04:57:58;;;;;;;;;;;22.40;99.90;;;;;;5007133;28;20336;-49
2022/11/19 05:00:23;;;;;;;;;;;22.40;99.90;;;;;;4995613;23;19922;-46
2022/11/19 05:02:49;;;;;;;;;;;22.40;99.90;;;;;;4973176;28;20355;-46
2022/11/19 05:05:15;;;;;;;;;;;22.40;99.90;;;;;;4972630;28;19965;-45
2022/11/19 05:07:40;;;;;;;;;;;22.40;99.90;;;;;;4972616;28;19937;-46
2022/11/19 05:10:06;;;;;;;;;;;22.40;99.90;;;;;;4972592;28;19907;-46
2022/11/19 05:12:32;;;;;;;;;;;22.40;99.90;;;;;;4974126;28;19917;-46
2022/11/19 05:14:57;;;;;;;;;;;22.40;99.90;;;;;;4960009;28;19913;-46
2022/11/19 05:17:23;;;;;;;;;;;22.40;99.90;;;;;;4978492;28;19942;-45
2022/11/19 05:19:48;;;;;;;;;;;22.40;99.90;;;;;;4978191;28;19945;-46
2022/11/19 05:22:14;;;;;;;;;;;22.40;99.90;;;;;;4978358;28;19906;-46
2022/11/19 05:24:40;;;;;;;;;;;22.30;99.90;;;;;;4978626;28;20007;-45
2022/11/19 05:27:05;;;;;;;;;;;22.30;99.90;;;;;;4978278;28;19906;-46
2022/11/19 05:29:31;;;;;;;;;;;22.30;99.90;;;;;;4978313;28;19906;-46
2022/11/19 05:31:56;;;;;;;;;;;22.30;99.90;;;;;;4978190;28;20006;-46
2022/11/19 05:34:22;;;;;;;;;;;22.30;99.90;;;;;;4977988;28;20405;-46
2022/11/19 05:36:47;;;;;;;;;;;22.30;99.90;;;;;;4978139;28;19989;-45
2022/11/19 05:39:13;;;;;;;;;;;22.30;99.90;;;;;;4978161;28;19914;-45
2022/11/19 05:41:39;;;;;;;;;;;22.30;99.90;;;;;;4976994;28;20398;-46
2022/11/19 05:44:04;;;;;;;;;;;22.30;99.90;;;;;;4978042;28;19962;-46
2022/11/19 05:46:30;;;;;;;;;;;22.30;99.90;;;;;;4978213;28;19906;-46
2022/11/19 05:48:55;;;;;;;;;;;22.30;99.90;;;;;;4977816;28;19937;-46
2022/11/19 05:51:21;;;;;;;;;;;22.20;99.90;;;;;;4978014;28;20005;-45
2022/11/19 05:53:47;;;;;;;;;;;22.30;99.90;;;;;;4977868;28;19907;-47
2022/11/19 05:56:12;;;;;;;;;;;22.20;99.90;;;;;;4977814;28;19905;-46
2022/11/19 05:58:38;;;;;;;;;;;22.20;99.90;;;;;;4977723;28;20000;-45
2022/11/19 06:01:04;;;;;;;;;;;22.20;99.90;;;;;;4977363;28;19918;-45
2022/11/19 06:03:30;;;;;;;;;;;22.20;99.90;;;;;;4977632;28;19913;-46
2022/11/19 06:05:55;;;;;;;;;;;22.20;99.90;;;;;;4977548;28;19913;-47
2022/11/19 06:08:21;;;;;;;;;;;22.20;99.90;;;;;;4977584;28;19906;-46
2022/11/19 06:10:46;;;;;;;;;;;22.20;99.90;;;;;;4977738;28;19906;-45
2022/11/19 06:13:12;;;;;;;;;;;22.20;99.90;;;;;;4976356;28;19906;-46
2022/11/19 06:15:38;;;;;;;;;;;22.20;99.90;;;;;;4976382;28;19941;-46
2022/11/19 06:18:03;;;;;;;;;;;22.20;99.90;;;;;;4977336;28;19913;-46
2022/11/19 06:20:29;;;;;;;;;;;22.20;99.90;;;;;;4977489;28;19914;-46
2022/11/19 06:22:54;;;;;;;;;;;22.20;99.90;;;;;;4977142;28;19906;-46
2022/11/19 06:25:20;;;;;;;;;;;22.20;99.90;;;;;;4976384;28;19906;-46
2022/11/19 06:27:46;;;;;;;;;;;22.10;99.90;;;;;;4977234;28;19913;-45
2022/11/19 06:30:12;;;;;;;;;;;22.10;99.90;;;;;;4977230;28;19953;-45
2022/11/19 06:32:37;;;;;;;;;;;22.10;99.90;;;;;;4977286;28;19910;-45
2022/11/19 06:35:03;;;;;;;;;;;22.10;99.90;;;;;;4976991;28;19911;-46
2022/11/19 06:37:29;;;;;;;;;;;22.10;99.90;;;;;;4976338;28;20449;-46
2022/11/19 06:39:54;;;;;;;;;;;22.10;99.90;;;;;;4976178;28;19975;-46
2022/11/19 06:42:35;;;;;;;;;;;22.10;99.90;;;;;;4975586;28;19906;-46
2022/11/19 06:45:02;;;;;;;;;;;22.10;99.90;;;;;;4976908;28;19949;-46
2022/11/19 06:47:30;;;;;;;;;;;22.10;99.90;;;;;;4977035;28;19914;-45
2022/11/19 06:49:56;;;;;;;;;;;22.10;99.90;;;;;;4975481;28;20029;-45
2022/11/19 06:52:22;;;;;;;;;;;22.10;99.90;;;;;;4976850;28;19995;-46
2022/11/19 06:54:47;;;;;;;;;;;22.10;99.90;;;;;;4959360;28;20045;-46
2022/11/19 06:57:13;;;;;;;;;;;22.10;99.90;;;;;;4975377;28;19910;-46
2022/11/19 06:59:38;;;;;;;;;;;22.00;99.90;;;;;;4976452;28;19930;-45
2022/11/19 07:02:04;;;;;;;;;;;22.10;99.90;;;;;;4976538;28;20261;-46
2022/11/19 07:04:30;;;;;;;;;;;22.10;99.90;;;;;;4976538;28;19906;-46
2022/11/19 07:06:56;;;;;;;;;;;22.10;99.90;;;;;;4976565;28;19906;-45
2022/11/19 07:09:21;;;;;;;;;;;22.10;99.90;;;;;;4976640;28;19961;-46
2022/11/19 07:11:47;;;;;;;;;;;22.00;99.90;;;;;;4976502;28;20273;-46
2022/11/19 07:14:12;;;;;;;;;;;22.00;99.90;;;;;;4976259;28;19910;-46
2022/11/19 07:16:38;;;;;;;;;;;22.00;99.90;;;;;;4976415;28;20041;-46
2022/11/19 07:19:05;;;;;;;;;;;22.00;99.90;;;;;;4976213;28;19968;-46
2022/11/19 07:21:31;;;;;;;;;;;22.10;99.90;;;;;;4976075;28;19959;-45
2022/11/19 07:23:57;;;;;;;;;;;22.10;99.90;;;;;;4976156;28;20312;-46
2022/11/19 07:26:22;;;;;;;;;;;22.10;99.90;;;;;;4976241;28;19909;-46
2022/11/19 07:28:48;;;;;;;;;;;22.10;99.90;;;;;;4975843;28;19912;-46
2022/11/19 07:31:14;;;;;;;;;;;22.10;99.90;;;;;;4976091;28;20358;-46
2022/11/19 07:33:39;;;;;;;;;;;22.10;99.90;;;;;;4976014;28;19906;-46
2022/11/19 07:36:09;;;;;;;;;;;22.10;99.90;;;;;;4975698;28;19909;-46
2022/11/19 07:38:35;;;;;;;;;;;22.10;99.90;;;;;;4975616;28;19917;-52
2022/11/19 07:41:00;;;;;;;;;;;22.10;99.90;;;;;;4975868;28;19961;-47
2022/11/19 07:43:26;;;;;;;;;;;22.10;99.90;;;;;;4975862;28;19949;-46
2022/11/19 07:45:52;;;;;;;;;;;22.10;99.90;;;;;;4975741;28;19910;-46
2022/11/19 07:48:17;;;;;;;;;;;22.20;99.90;;;;;;4975738;28;19906;-46
2022/11/19 07:50:48;;;;;;;;;;;22.20;99.90;;;;;;4975513;28;19929;-46
2022/11/19 07:53:14;;;;;;;;;;;22.10;99.90;;;;;;4975465;28;19997;-46
2022/11/19 07:55:39;;;;;;;;;;;22.20;99.90;;;;;;4975634;28;19949;-46
2022/11/19 07:58:05;;;;;;;;;;;22.20;99.90;;;;;;4975427;28;19910;-46
2022/11/19 08:00:30;;;;;;;;;;;22.20;99.90;;;;;;4975230;28;20350;-46
2022/11/19 08:02:56;;;;;;;;;;;22.20;99.90;;;;;;4975440;28;19910;-46
2022/11/19 08:05:22;;;;;;;;;;;22.20;99.90;;;;;;4975261;28;19961;-48
2022/11/19 08:07:47;;;;;;;;;;;22.20;99.90;;;;;;4975176;28;19906;-46
2022/11/19 08:10:13;;;;;;;;;;;22.20;99.90;;;;;;4975198;28;19930;-46
2022/11/19 08:12:38;;;;;;;;;;;22.20;99.90;;;;;;4957952;28;19906;-46
2022/11/19 08:15:04;;;;;;;;;;;22.20;99.90;;;;;;4975280;28;19906;-46
2022/11/19 08:20:21;;;;;;;;;;;22.30;99.90;;;;;;4959526;28;20004;-47
2022/11/19 08:22:47;;;;;;;;;;;22.30;99.90;;;;;;4975030;28;20279;-46
2022/11/19 08:25:13;;;;;;;;;;;22.30;99.90;;;;;;4957689;28;19906;-46
2022/11/19 08:27:38;;;;;;;;;;;22.30;99.90;;;;;;4975050;28;19913;-46
2022/11/19 08:30:04;;;;;;;;;;;22.30;99.90;;;;;;4957798;28;19912;-46
2022/11/19 08:32:30;;;;;;;;;;;22.30;99.90;;;;;;4975092;28;19913;-46
2022/11/19 08:34:55;;;;;;;;;;;22.30;99.90;;;;;;4974967;28;20427;-46
2022/11/19 08:37:21;;;;;;;;;;;22.30;99.90;;;;;;4974944;28;19953;-46
2022/11/19 08:39:46;;;;;;;;;;;22.30;99.90;;;;;;4974789;28;19922;-46
2022/11/19 08:44:57;;;;;;;;;;;22.30;99.90;;;;;;4975066;28;19961;-46
2022/11/19 08:47:22;;;;;;;;;;;22.30;99.90;;;;;;4978014;28;19914;-46
2022/11/19 08:49:48;;;;;;;;;;;22.30;99.90;;;;;;4981264;28;20323;-48
2022/11/19 08:52:14;;;;;;;;;;;22.30;99.90;;;;;;4981206;28;19913;-47
2022/11/19 08:54:39;;;;;;;;;;;22.30;99.90;;;;;;4963810;28;19910;-47
2022/11/19 08:57:05;;;;;;;;;;;22.40;99.90;;;;;;4963658;28;19933;-46
2022/11/19 08:59:30;;;;;;;;;;;22.40;99.90;;;;;;4980789;28;20009;-46
2022/11/19 09:01:56;;;;;;;;;;;22.40;99.90;;;;;;4981141;28;19913;-46
2022/11/19 09:04:21;;;;;;;;;;;22.50;99.90;;;;;;4981322;28;20001;-46
2022/11/19 09:06:47;;;;;;;;;;;22.50;99.90;;;;;;4981333;28;19913;-47
2022/11/19 09:09:13;;;;;;;;;;;22.50;99.90;;;;;;4963878;28;20333;-46
2022/11/19 09:11:38;;;;;;;;;;;22.60;99.90;;;;;;4981002;28;19913;-46
2022/11/19 09:14:04;;;;;;;;;;;22.60;99.90;;;;;;4981050;28;20053;-46
2022/11/19 09:16:30;;;;;;;;;;;22.70;99.90;;;;;;4980906;28;19913;-46
2022/11/19 09:18:55;;;;;;;;;;;22.70;99.90;;;;;;4981323;28;20285;-46
2022/11/19 09:21:21;;;;;;;;;;;22.70;99.90;;;;;;4980820;28;19906;-45
2022/11/19 09:23:46;;;;;;;;;;;22.80;99.90;;;;;;4980838;28;20004;-46
2022/11/19 09:26:13;;;;;;;;;;;22.80;99.90;;;;;;4980970;28;20381;-46
2022/11/19 09:28:39;;;;;;;;;;;22.80;99.90;;;;;;4980975;28;20361;-46
2022/11/19 09:31:07;;;;;;;;;;;22.90;99.90;;;;;;4963395;28;19921;-46
2022/11/19 09:33:34;;;;;;;;;;;22.90;99.90;;;;;;4980815;28;20026;-46
2022/11/19 09:35:59;;;;;;;;;;;23.00;99.90;;;;;;4963273;28;19906;-46
2022/11/19 09:38:25;;;;;;;;;;;23.10;99.90;;;;;;4980388;28;20247;-46
2022/11/19 09:40:54;;;;;;;;;;;23.10;99.90;;;;;;4980223;28;20413;-46
2022/11/19 09:43:38;;;;;;;;;;;23.20;99.90;;;;;;4980463;28;20253;-46
2022/11/19 09:46:27;;;;;;;;;;;23.20;99.90;;;;;;4980676;28;20278;-46
2022/11/19 09:48:54;;;;;;;;;;;23.20;99.90;;;;;;4943984;28;20354;-46
2022/11/19 09:51:22;;;;;;;;;;;23.30;99.90;;;;;;4963226;28;19914;-46
2022/11/19 09:53:48;;;;;;;;;;;23.30;99.90;;;;;;4980673;28;19909;-46
2022/11/19 09:56:16;;;;;;;;;;;23.30;99.90;;;;;;4980437;28;19988;-46
2022/11/19 09:58:44;;;;;;;;;;;23.40;99.90;;;;;;4979202;28;19946;-46
2022/11/19 10:01:16;;;;;;;;;;;23.40;99.90;;;;;;4977268;28;19918;-46
2022/11/19 10:03:46;;;;;;;;;;;23.50;99.90;;;;;;4977335;28;20363;-46
2022/11/19 10:06:14;;;;;;;;;;;23.60;99.90;;;;;;4977609;28;20263;-47
2022/11/19 10:08:40;;;;;;;;;;;23.60;99.90;;;;;;4977570;28;19928;-47
2022/11/19 10:11:14;;;;;;;;;;;23.70;99.90;;;;;;4977538;28;20366;-47
2022/11/19 10:13:56;;;;;;;;;;;23.80;99.90;;;;;;4977506;28;19906;-47
2022/11/19 10:16:22;;;;;;;;;;;23.80;99.90;;;;;;4977205;28;19906;-46
2022/11/19 10:18:55;;;;;;;;;;;23.90;99.90;;;;;;4977193;28;19961;-46
2022/11/19 10:21:26;;;;;;;;;;;23.90;99.90;;;;;;4977149;28;19906;-46
2022/11/19 10:24:04;;;;;;;;;;;24.00;99.90;;;;;;4976883;28;20297;-46
2022/11/19 10:26:33;;;;;;;;;;;24.10;99.90;;;;;;4977178;28;19921;-47
2022/11/19 10:28:59;;;;;;;;;;;24.10;99.90;;;;;;4977107;28;19907;-47
2022/11/19 10:31:28;;;;;;;;;;;24.20;99.90;;;;;;4976880;28;19906;-46
2022/11/19 10:33:57;;;;;;;;;;;24.30;99.90;;;;;;4977080;28;20033;-46
2022/11/19 10:36:28;;;;;;;;;;;24.30;99.90;;;;;;4976840;28;19946;-47
2022/11/19 10:38:56;;;;;;;;;;;24.40;99.90;;;;;;4976933;28;20001;-47
2022/11/19 10:41:40;;;;;;;;;;;24.40;99.90;;;;;;4959738;28;19945;-46
2022/11/19 10:44:36;;;;;;;;;;;24.50;99.90;;;;;;4976566;28;19909;-47
2022/11/19 10:47:21;;;;;;;;;;;24.50;99.90;;;;;;4959252;28;19906;-47
2022/11/19 10:49:52;;;;;;;;;;;24.60;99.90;;;;;;4976115;28;19906;-46
2022/11/19 10:52:22;;;;;;;;;;;24.60;99.90;;;;;;4976800;28;20286;-47
2022/11/19 10:54:50;;;;;;;;;;;24.70;99.90;;;;;;4976577;28;19906;-46
2022/11/19 10:57:17;;;;;;;;;;;24.70;99.90;;;;;;4959534;28;19910;-46
2022/11/19 10:59:43;;;;;;;;;;;24.70;99.90;;;;;;4976390;28;20394;-46
2022/11/19 11:02:27;;;;;;;;;;;24.80;99.90;;;;;;4976458;28;20000;-47
2022/11/19 11:05:07;;;;;;;;;;;24.80;99.90;;;;;;4958916;28;19925;-47
2022/11/19 11:07:52;;;;;;;;;;;24.80;99.90;;;;;;4976375;28;20382;-46
2022/11/19 11:10:27;;;;;;;;;;;24.90;99.90;;;;;;4975718;28;20342;-47
2022/11/19 11:15:45;;;;;;;;;;;24.90;99.90;;;;;;4976184;28;19913;-47
2022/11/19 11:18:13;;;;;;;;;;;25.00;99.90;;;;;;4976108;28;20321;-46
2022/11/19 11:20:44;;;;;;;;;;;25.00;99.90;;;;;;4976223;28;19921;-47
2022/11/19 11:23:12;;;;;;;;;;;25.00;99.90;;;;;;4958720;28;19945;-47
2022/11/19 11:25:38;;;;;;;;;;;25.10;99.90;;;;;;4976265;28;19913;-47
2022/11/19 11:28:22;;;;;;;;;;;25.10;99.90;;;;;;4975988;28;19913;-47
2022/11/19 11:30:51;;;;;;;;;;;25.20;99.90;;;;;;4958462;28;19996;-47
2022/11/19 11:33:23;;;;;;;;;;;25.20;99.90;;;;;;4976024;28;20367;-47
2022/11/19 11:35:50;;;;;;;;;;;25.20;99.90;;;;;;4975801;28;19906;-47
2022/11/19 11:38:18;;;;;;;;;;;25.30;99.90;;;;;;4975719;28;19906;-47
2022/11/19 11:41:01;;;;;;;;;;;25.30;99.90;;;;;;4975586;28;19921;-46
2022/11/19 11:43:28;;;;;;;;;;;25.30;99.90;;;;;;4975627;28;20393;-47
2022/11/19 11:45:55;;;;;;;;;;;25.30;99.90;;;;;;4975589;28;19910;-46
2022/11/19 11:48:21;;;;;;;;;;;25.40;99.90;;;;;;4975563;28;19906;-46
2022/11/19 11:50:47;;;;;;;;;;;25.40;99.90;;;;;;4975557;28;20052;-47
2022/11/19 11:53:14;;;;;;;;;;;25.40;99.90;;;;;;4958276;28;19914;-46
2022/11/19 11:55:40;;;;;;;;;;;25.40;99.90;;;;;;4975478;28;19928;-46
2022/11/19 11:58:23;;;;;;;;;;;25.50;99.90;;;;;;4975591;28;20358;-46
2022/11/19 12:00:52;;;;;;;;;;;25.50;99.90;;;;;;4975250;28;19918;-46
2022/11/19 12:03:18;;;;;;;;;;;25.50;99.90;;;;;;4975354;28;19906;-46
2022/11/19 12:05:44;;;;;;;;;;;25.60;99.90;;;;;;4975181;28;19906;-47
2022/11/19 12:08:26;;;;;;;;;;;25.60;99.90;;;;;;4975099;28;19913;-46
2022/11/19 12:10:52;;;;;;;;;;;25.70;99.90;;;;;;4975258;28;20357;-46
2022/11/19 12:13:33;;;;;;;;;;;25.70;99.90;;;;;;4975148;28;19906;-46
2022/11/19 12:16:01;;;;;;;;;;;25.70;99.90;;;;;;4975082;28;19945;-46
2022/11/19 12:18:39;;;;;;;;;;;25.70;99.90;;;;;;4974954;28;19906;-46
2022/11/19 12:21:17;;;;;;;;;;;25.70;99.90;;;;;;4974883;28;19945;-46
2022/11/19 12:23:51;;;;;;;;;;;25.80;99.90;;;;;;4970046;28;19924;-46
2022/11/19 12:26:22;;;;;;;;;;;25.80;99.90;;;;;;4971818;28;19911;-46
2022/11/19 12:29:04;;;;;;;;;;;25.80;99.90;;;;;;4966304;28;19960;-46
2022/11/19 12:31:37;;;;;;;;;;;25.80;99.90;;;;;;4966149;28;19954;-46
2022/11/19 12:34:18;;;;;;;;;;;25.90;99.90;;;;;;4968234;28;19906;-47
2022/11/19 12:36:56;;;;;;;;;;;25.90;99.90;;;;;;4974127;28;19918;-45
2022/11/19 12:39:40;;;;;;;;;;;25.90;99.90;;;;;;4972589;28;20370;-46
2022/11/19 12:42:25;;;;;;;;;;;25.80;99.90;;;;;;4970857;28;19914;-47
2022/11/19 12:44:50;;;;;;;;;;;25.60;99.90;;;;;;4983820;28;20016;-46
2022/11/19 12:47:34;;;;;;;;;;;25.40;99.90;;;;;;4974295;28;19945;-47
2022/11/19 12:50:13;;;;;;;;;;;25.30;99.90;;;;;;4974391;28;19921;-46
2022/11/19 12:52:57;;;;;;;;;;;25.10;99.90;;;;;;4992211;28;19973;-46
2022/11/19 12:55:46;;;;;;;;;;;24.90;99.90;;;;;;4975990;28;19932;-46
2022/11/19 12:58:29;;;;;;;;;;;24.70;99.90;;;;;;4939473;28;19906;-46
2022/11/19 13:01:00;;;;;;;;;;;24.50;99.90;;;;;;4992729;28;20158;-45
2022/11/19 13:03:38;;;;;;;;;;;24.30;99.90;;;;;;4991825;28;19952;-47
2022/11/19 13:06:08;;;;;;;;;;;24.30;99.90;;;;;;4992289;28;19960;-46
2022/11/19 13:08:38;;;;;;;;;;;24.10;99.90;;;;;;4993034;28;19952;-47
2022/11/19 13:11:05;;;;;;;;;;;24.10;99.90;;;;;;4993125;28;19902;-46
2022/11/19 13:13:32;;;;;;;;;;;24.00;99.90;;;;;;4993317;28;19906;-46
2022/11/19 13:15:57;;;;;;;;;;;23.90;99.90;;;;;;4993466;28;19945;-46
2022/11/19 13:18:26;;;;;;;;;;;23.90;99.90;;;;;;4993837;28;19909;-46
2022/11/19 13:20:58;;;;;;;;;;;23.90;99.90;;;;;;4994075;28;19906;-46
2022/11/19 13:23:30;;;;;;;;;;;23.90;99.90;;;;;;4987215;28;20390;-46
2022/11/19 13:25:55;;;;;;;;;;;23.80;99.90;;;;;;4974223;28;19907;-46
2022/11/19 13:28:38;;;;;;;;;;;23.80;99.90;;;;;;4974401;28;19906;-46
2022/11/19 13:31:22;;;;;;;;;;;23.80;99.90;;;;;;4973710;28;20404;-46
2022/11/19 13:33:54;;;;;;;;;;;23.90;99.90;;;;;;4973446;28;19910;-47
2022/11/19 13:36:30;;;;;;;;;;;23.90;99.90;;;;;;4976818;28;19929;-49
2022/11/19 13:38:57;;;;;;;;;;;24.00;99.90;;;;;;4977572;28;20028;-47
2022/11/19 13:41:25;;;;;;;;;;;24.10;99.90;;;;;;4977460;28;19932;-48
2022/11/19 13:46:41;;;;;;;;;;;24.20;99.90;;;;;;4974685;28;19912;-48
2022/11/19 13:49:12;;;;;;;;;;;24.30;99.90;;;;;;4977476;28;19913;-49
2022/11/19 13:51:39;;;;;;;;;;;24.40;99.90;;;;;;4977469;28;20215;-48
2022/11/19 13:54:06;;;;;;;;;;;24.40;99.90;;;;;;4977208;28;19910;-48
2022/11/19 13:56:36;;;;;;;;;;;24.50;99.90;;;;;;4977532;28;20294;-50
2022/11/19 13:59:03;;;;;;;;;;;24.40;99.90;;;;;;4977032;28;20012;-48
2022/11/19 14:01:34;;;;;;;;;;;24.40;99.90;;;;;;4977073;28;19918;-48
2022/11/19 14:04:09;;;;;;;;;;;24.30;99.90;;;;;;4977289;28;20251;-47
2022/11/19 14:06:44;;;;;;;;;;;24.10;99.90;;;;;;4977189;28;19989;-48
2022/11/19 14:09:30;;;;;;;;;;;24.00;99.90;;;;;;4977394;28;20306;-48
2022/11/19 14:11:58;;;;;;;;;;;23.80;99.90;;;;;;4976281;28;20358;-48
2022/11/19 14:26:45;;;;;;;;;;;23.60;99.90;;;;;;4974431;28;20400;-48
2022/11/19 14:29:17;;;;;;;;;;;23.60;99.90;;;;;;4939969;28;20282;-48
2022/11/19 14:32:07;;;;;;;;;;;23.60;99.90;;;;;;4971053;28;19913;-48
2022/11/19 14:34:34;;;;;;;;;;;23.50;99.90;;;;;;4972306;28;19914;-49
2022/11/19 14:37:01;;;;;;;;;;;23.60;99.90;;;;;;4974172;28;19914;-48
2022/11/19 14:39:28;;;;;;;;;;;23.60;99.90;;;;;;4956717;28;19921;-49
2022/11/19 14:42:13;;;;;;;;;;;23.60;99.90;;;;;;4972963;28;19914;-49
2022/11/19 14:44:39;;;;;;;;;;;23.60;99.90;;;;;;4973078;28;19914;-48
2022/11/19 14:47:23;;;;;;;;;;;23.60;99.90;;;;;;4973347;28;20320;-49
2022/11/19 14:49:50;;;;;;;;;;;23.60;99.90;;;;;;4973369;28;19925;-49
2022/11/19 14:52:21;;;;;;;;;;;23.70;99.90;;;;;;4973976;28;20367;-50
2022/11/19 14:55:13;;;;;;;;;;;23.70;99.90;;;;;;4974395;28;20326;-49
2022/11/19 14:57:40;;;;;;;;;;;23.80;99.90;;;;;;4970055;28;19957;-49
2022/11/19 15:00:24;;;;;;;;;;;23.90;99.90;;;;;;4973710;28;19922;-49
2022/11/19 15:02:50;;;;;;;;;;;23.90;99.90;;;;;;4955887;28;19914;-49